sensor_id;sensor_type;location;lat;lon;timestamp;P1;durP1;ratioP1;P2;durP2;ratioP2
20966;SDS011;10642;50.682;18.510;2023-07-22T00:00:43;12.33;;;8.03;;
20966;SDS011;10642;50.682;18.510;2023-07-22T00:03:10;11.53;;;8.77;;
20966;SDS011;10642;50.682;18.510;2023-07-22T00:05:39;14.37;;;9.37;;
20966;SDS011;10642;50.682;18.510;2023-07-22T00:08:06;17.73;;;9.80;;
20966;SDS011;10642;50.682;18.510;2023-07-22T00:10:32;16.73;;;9.67;;
20966;SDS011;10642;50.682;18.510;2023-07-22T00:12:59;18.43;;;10.00;;
20966;SDS011;10642;50.682;18.510;2023-07-22T00:15:26;19.77;;;9.07;;
20966;SDS011;10642;50.682;18.510;2023-07-22T00:17:53;14.17;;;9.47;;
20966;SDS011;10642;50.682;18.510;2023-07-22T00:20:20;15.10;;;9.07;;
20966;SDS011;10642;50.682;18.510;2023-07-22T00:22:47;14.30;;;9.83;;
20966;SDS011;10642;50.682;18.510;2023-07-22T00:25:14;15.83;;;8.80;;
20966;SDS011;10642;50.682;18.510;2023-07-22T00:27:41;18.80;;;9.37;;
20966;SDS011;10642;50.682;18.510;2023-07-22T00:30:08;11.47;;;9.37;;
20966;SDS011;10642;50.682;18.510;2023-07-22T00:32:35;14.07;;;9.17;;
20966;SDS011;10642;50.682;18.510;2023-07-22T00:35:04;17.27;;;9.60;;
20966;SDS011;10642;50.682;18.510;2023-07-22T00:37:32;23.00;;;11.50;;
20966;SDS011;10642;50.682;18.510;2023-07-22T00:40:00;15.40;;;10.37;;
20966;SDS011;10642;50.682;18.510;2023-07-22T00:42:28;16.27;;;10.50;;
20966;SDS011;10642;50.682;18.510;2023-07-22T00:44:54;14.03;;;10.03;;
20966;SDS011;10642;50.682;18.510;2023-07-22T00:47:21;15.07;;;10.00;;
20966;SDS011;10642;50.682;18.510;2023-07-22T00:49:49;15.43;;;10.10;;
20966;SDS011;10642;50.682;18.510;2023-07-22T00:52:16;17.43;;;9.27;;
20966;SDS011;10642;50.682;18.510;2023-07-22T00:54:43;13.60;;;9.40;;
20966;SDS011;10642;50.682;18.510;2023-07-22T00:57:12;14.10;;;9.07;;
20966;SDS011;10642;50.682;18.510;2023-07-22T00:59:39;13.97;;;9.80;;
20966;SDS011;10642;50.682;18.510;2023-07-22T01:02:07;15.30;;;9.17;;
20966;SDS011;10642;50.682;18.510;2023-07-22T01:04:34;14.37;;;9.70;;
20966;SDS011;10642;50.682;18.510;2023-07-22T01:07:03;12.80;;;9.40;;
20966;SDS011;10642;50.682;18.510;2023-07-22T01:09:37;15.17;;;9.80;;
20966;SDS011;10642;50.682;18.510;2023-07-22T01:12:05;13.17;;;8.77;;
20966;SDS011;10642;50.682;18.510;2023-07-22T01:14:38;14.00;;;9.20;;
20966;SDS011;10642;50.682;18.510;2023-07-22T01:17:06;9.70;;;7.97;;
20966;SDS011;10642;50.682;18.510;2023-07-22T01:19:34;11.67;;;8.47;;
20966;SDS011;10642;50.682;18.510;2023-07-22T01:22:04;12.60;;;8.60;;
20966;SDS011;10642;50.682;18.510;2023-07-22T01:24:35;20.17;;;8.80;;
20966;SDS011;10642;50.682;18.510;2023-07-22T01:27:02;11.03;;;7.83;;
20966;SDS011;10642;50.682;18.510;2023-07-22T01:29:30;9.67;;;8.13;;
20966;SDS011;10642;50.682;18.510;2023-07-22T01:31:57;11.90;;;8.47;;
20966;SDS011;10642;50.682;18.510;2023-07-22T01:34:24;13.10;;;8.50;;
20966;SDS011;10642;50.682;18.510;2023-07-22T01:36:51;14.10;;;8.47;;
20966;SDS011;10642;50.682;18.510;2023-07-22T01:39:19;12.13;;;7.23;;
20966;SDS011;10642;50.682;18.510;2023-07-22T01:41:46;11.27;;;8.33;;
20966;SDS011;10642;50.682;18.510;2023-07-22T01:44:13;11.03;;;7.43;;
20966;SDS011;10642;50.682;18.510;2023-07-22T01:46:41;9.67;;;7.60;;
20966;SDS011;10642;50.682;18.510;2023-07-22T01:49:11;10.27;;;8.00;;
20966;SDS011;10642;50.682;18.510;2023-07-22T01:51:39;9.33;;;7.67;;
20966;SDS011;10642;50.682;18.510;2023-07-22T01:54:09;13.73;;;8.07;;
20966;SDS011;10642;50.682;18.510;2023-07-22T01:56:37;14.03;;;7.80;;
20966;SDS011;10642;50.682;18.510;2023-07-22T01:59:04;13.20;;;7.57;;
20966;SDS011;10642;50.682;18.510;2023-07-22T02:01:31;8.13;;;6.73;;
20966;SDS011;10642;50.682;18.510;2023-07-22T02:03:59;9.33;;;7.27;;
20966;SDS011;10642;50.682;18.510;2023-07-22T02:06:26;9.30;;;6.60;;
20966;SDS011;10642;50.682;18.510;2023-07-22T02:08:54;11.70;;;7.47;;
20966;SDS011;10642;50.682;18.510;2023-07-22T02:11:22;11.63;;;9.03;;
20966;SDS011;10642;50.682;18.510;2023-07-22T02:13:49;10.00;;;6.30;;
20966;SDS011;10642;50.682;18.510;2023-07-22T02:16:16;8.83;;;6.30;;
20966;SDS011;10642;50.682;18.510;2023-07-22T02:18:43;10.63;;;6.67;;
20966;SDS011;10642;50.682;18.510;2023-07-22T02:21:10;9.27;;;6.63;;
20966;SDS011;10642;50.682;18.510;2023-07-22T02:23:37;11.63;;;7.00;;
20966;SDS011;10642;50.682;18.510;2023-07-22T02:26:04;7.80;;;6.07;;
20966;SDS011;10642;50.682;18.510;2023-07-22T02:28:32;9.50;;;6.60;;
20966;SDS011;10642;50.682;18.510;2023-07-22T02:31:01;8.53;;;6.03;;
20966;SDS011;10642;50.682;18.510;2023-07-22T02:33:29;10.90;;;6.23;;
20966;SDS011;10642;50.682;18.510;2023-07-22T02:35:55;11.27;;;6.27;;
20966;SDS011;10642;50.682;18.510;2023-07-22T02:38:22;8.83;;;6.37;;
20966;SDS011;10642;50.682;18.510;2023-07-22T02:40:49;7.60;;;5.77;;
20966;SDS011;10642;50.682;18.510;2023-07-22T02:43:16;8.70;;;6.43;;
20966;SDS011;10642;50.682;18.510;2023-07-22T02:45:43;9.60;;;6.73;;
20966;SDS011;10642;50.682;18.510;2023-07-22T02:48:10;10.83;;;6.63;;
20966;SDS011;10642;50.682;18.510;2023-07-22T02:50:37;10.70;;;6.40;;
20966;SDS011;10642;50.682;18.510;2023-07-22T02:53:04;9.80;;;6.80;;
20966;SDS011;10642;50.682;18.510;2023-07-22T02:55:32;10.13;;;6.40;;
20966;SDS011;10642;50.682;18.510;2023-07-22T02:57:59;9.23;;;6.63;;
20966;SDS011;10642;50.682;18.510;2023-07-22T03:00:26;11.47;;;6.90;;
20966;SDS011;10642;50.682;18.510;2023-07-22T03:02:53;10.30;;;6.43;;
20966;SDS011;10642;50.682;18.510;2023-07-22T03:05:27;13.87;;;6.57;;
20966;SDS011;10642;50.682;18.510;2023-07-22T03:07:55;8.27;;;6.63;;
20966;SDS011;10642;50.682;18.510;2023-07-22T03:10:22;10.07;;;6.80;;
20966;SDS011;10642;50.682;18.510;2023-07-22T03:12:49;11.57;;;7.10;;
20966;SDS011;10642;50.682;18.510;2023-07-22T03:15:16;11.77;;;6.87;;
20966;SDS011;10642;50.682;18.510;2023-07-22T03:17:45;14.17;;;7.23;;
20966;SDS011;10642;50.682;18.510;2023-07-22T03:20:12;9.97;;;6.87;;
20966;SDS011;10642;50.682;18.510;2023-07-22T03:22:44;10.63;;;7.13;;
20966;SDS011;10642;50.682;18.510;2023-07-22T03:25:12;13.93;;;6.83;;
20966;SDS011;10642;50.682;18.510;2023-07-22T03:27:39;13.00;;;7.27;;
20966;SDS011;10642;50.682;18.510;2023-07-22T03:30:06;9.57;;;7.90;;
20966;SDS011;10642;50.682;18.510;2023-07-22T03:32:46;9.83;;;6.47;;
20966;SDS011;10642;50.682;18.510;2023-07-22T03:35:14;12.23;;;7.20;;
20966;SDS011;10642;50.682;18.510;2023-07-22T03:37:42;14.13;;;7.90;;
20966;SDS011;10642;50.682;18.510;2023-07-22T03:40:10;13.23;;;7.47;;
20966;SDS011;10642;50.682;18.510;2023-07-22T03:42:54;13.03;;;7.43;;
20966;SDS011;10642;50.682;18.510;2023-07-22T03:45:21;11.40;;;7.17;;
20966;SDS011;10642;50.682;18.510;2023-07-22T03:47:52;12.10;;;7.23;;
20966;SDS011;10642;50.682;18.510;2023-07-22T03:50:19;8.23;;;6.43;;
20966;SDS011;10642;50.682;18.510;2023-07-22T03:52:46;10.27;;;6.90;;
20966;SDS011;10642;50.682;18.510;2023-07-22T03:55:13;16.70;;;7.33;;
20966;SDS011;10642;50.682;18.510;2023-07-22T03:57:40;12.43;;;6.90;;
20966;SDS011;10642;50.682;18.510;2023-07-22T04:00:07;8.70;;;6.40;;
20966;SDS011;10642;50.682;18.510;2023-07-22T04:02:40;9.17;;;6.30;;
20966;SDS011;10642;50.682;18.510;2023-07-22T04:05:08;9.57;;;6.10;;
20966;SDS011;10642;50.682;18.510;2023-07-22T04:07:35;12.97;;;6.10;;
20966;SDS011;10642;50.682;18.510;2023-07-22T04:10:02;9.53;;;6.10;;
20966;SDS011;10642;50.682;18.510;2023-07-22T04:12:29;9.20;;;6.00;;
20966;SDS011;10642;50.682;18.510;2023-07-22T04:14:56;8.30;;;6.50;;
20966;SDS011;10642;50.682;18.510;2023-07-22T04:17:23;12.30;;;5.67;;
20966;SDS011;10642;50.682;18.510;2023-07-22T04:19:51;8.30;;;5.60;;
20966;SDS011;10642;50.682;18.510;2023-07-22T04:22:18;9.43;;;6.47;;
20966;SDS011;10642;50.682;18.510;2023-07-22T04:24:45;8.90;;;5.70;;
20966;SDS011;10642;50.682;18.510;2023-07-22T04:27:16;9.40;;;5.03;;
20966;SDS011;10642;50.682;18.510;2023-07-22T04:29:44;8.53;;;4.63;;
20966;SDS011;10642;50.682;18.510;2023-07-22T04:32:11;6.87;;;4.50;;
20966;SDS011;10642;50.682;18.510;2023-07-22T04:34:38;6.67;;;4.73;;
20966;SDS011;10642;50.682;18.510;2023-07-22T04:37:06;6.20;;;5.03;;
20966;SDS011;10642;50.682;18.510;2023-07-22T04:39:33;7.03;;;5.30;;
20966;SDS011;10642;50.682;18.510;2023-07-22T04:42:01;8.47;;;4.53;;
20966;SDS011;10642;50.682;18.510;2023-07-22T04:44:28;6.83;;;4.93;;
20966;SDS011;10642;50.682;18.510;2023-07-22T04:46:55;11.77;;;4.70;;
20966;SDS011;10642;50.682;18.510;2023-07-22T04:49:22;11.03;;;4.63;;
20966;SDS011;10642;50.682;18.510;2023-07-22T04:51:49;6.87;;;4.63;;
20966;SDS011;10642;50.682;18.510;2023-07-22T04:54:17;4.73;;;4.23;;
20966;SDS011;10642;50.682;18.510;2023-07-22T04:56:45;6.73;;;4.37;;
20966;SDS011;10642;50.682;18.510;2023-07-22T04:59:12;8.87;;;4.70;;
20966;SDS011;10642;50.682;18.510;2023-07-22T05:01:40;7.97;;;4.63;;
20966;SDS011;10642;50.682;18.510;2023-07-22T05:04:08;7.67;;;4.53;;
20966;SDS011;10642;50.682;18.510;2023-07-22T05:06:35;7.57;;;4.57;;
20966;SDS011;10642;50.682;18.510;2023-07-22T05:09:02;5.77;;;4.20;;
20966;SDS011;10642;50.682;18.510;2023-07-22T05:11:30;7.57;;;4.43;;
20966;SDS011;10642;50.682;18.510;2023-07-22T05:13:57;7.83;;;4.40;;
20966;SDS011;10642;50.682;18.510;2023-07-22T05:16:24;7.27;;;4.60;;
20966;SDS011;10642;50.682;18.510;2023-07-22T05:18:52;8.13;;;4.30;;
20966;SDS011;10642;50.682;18.510;2023-07-22T05:21:19;6.90;;;4.47;;
20966;SDS011;10642;50.682;18.510;2023-07-22T05:23:46;8.10;;;4.43;;
20966;SDS011;10642;50.682;18.510;2023-07-22T05:26:13;8.80;;;4.40;;
20966;SDS011;10642;50.682;18.510;2023-07-22T05:28:40;7.07;;;4.23;;
20966;SDS011;10642;50.682;18.510;2023-07-22T05:31:07;6.53;;;4.13;;
20966;SDS011;10642;50.682;18.510;2023-07-22T05:33:34;4.73;;;3.67;;
20966;SDS011;10642;50.682;18.510;2023-07-22T05:36:01;4.23;;;3.53;;
20966;SDS011;10642;50.682;18.510;2023-07-22T05:38:28;9.20;;;4.37;;
20966;SDS011;10642;50.682;18.510;2023-07-22T05:40:55;6.23;;;3.43;;
20966;SDS011;10642;50.682;18.510;2023-07-22T05:43:22;5.63;;;3.60;;
20966;SDS011;10642;50.682;18.510;2023-07-22T05:45:49;5.53;;;4.10;;
20966;SDS011;10642;50.682;18.510;2023-07-22T05:48:16;9.13;;;3.90;;
20966;SDS011;10642;50.682;18.510;2023-07-22T05:50:43;7.97;;;3.67;;
20966;SDS011;10642;50.682;18.510;2023-07-22T05:53:10;7.50;;;3.70;;
20966;SDS011;10642;50.682;18.510;2023-07-22T05:55:37;6.43;;;3.63;;
20966;SDS011;10642;50.682;18.510;2023-07-22T05:58:04;6.57;;;3.80;;
20966;SDS011;10642;50.682;18.510;2023-07-22T06:00:34;6.73;;;3.57;;
20966;SDS011;10642;50.682;18.510;2023-07-22T06:03:01;5.63;;;3.63;;
20966;SDS011;10642;50.682;18.510;2023-07-22T06:05:28;4.03;;;2.80;;
20966;SDS011;10642;50.682;18.510;2023-07-22T06:07:55;5.60;;;3.50;;
20966;SDS011;10642;50.682;18.510;2023-07-22T06:10:24;5.23;;;3.53;;
20966;SDS011;10642;50.682;18.510;2023-07-22T06:12:51;9.20;;;3.60;;
20966;SDS011;10642;50.682;18.510;2023-07-22T06:15:18;5.93;;;3.27;;
20966;SDS011;10642;50.682;18.510;2023-07-22T06:17:45;7.50;;;3.83;;
20966;SDS011;10642;50.682;18.510;2023-07-22T06:20:13;5.03;;;3.60;;
20966;SDS011;10642;50.682;18.510;2023-07-22T06:22:40;7.40;;;3.23;;
20966;SDS011;10642;50.682;18.510;2023-07-22T06:25:07;4.83;;;3.03;;
20966;SDS011;10642;50.682;18.510;2023-07-22T06:27:34;3.70;;;2.70;;
20966;SDS011;10642;50.682;18.510;2023-07-22T06:30:02;4.23;;;3.03;;
20966;SDS011;10642;50.682;18.510;2023-07-22T06:32:29;5.33;;;3.13;;
20966;SDS011;10642;50.682;18.510;2023-07-22T06:34:57;6.63;;;3.00;;
20966;SDS011;10642;50.682;18.510;2023-07-22T06:37:24;5.07;;;2.90;;
20966;SDS011;10642;50.682;18.510;2023-07-22T06:39:52;3.73;;;2.90;;
20966;SDS011;10642;50.682;18.510;2023-07-22T06:42:19;7.10;;;3.10;;
20966;SDS011;10642;50.682;18.510;2023-07-22T06:44:46;5.50;;;3.00;;
20966;SDS011;10642;50.682;18.510;2023-07-22T06:47:13;7.13;;;3.13;;
20966;SDS011;10642;50.682;18.510;2023-07-22T06:49:41;3.83;;;2.60;;
20966;SDS011;10642;50.682;18.510;2023-07-22T06:52:12;7.33;;;3.03;;
20966;SDS011;10642;50.682;18.510;2023-07-22T06:54:39;6.10;;;2.80;;
20966;SDS011;10642;50.682;18.510;2023-07-22T06:57:07;4.27;;;3.10;;
20966;SDS011;10642;50.682;18.510;2023-07-22T06:59:34;6.63;;;3.20;;
20966;SDS011;10642;50.682;18.510;2023-07-22T07:02:01;6.63;;;3.03;;
20966;SDS011;10642;50.682;18.510;2023-07-22T07:04:28;5.37;;;2.97;;
20966;SDS011;10642;50.682;18.510;2023-07-22T07:06:55;6.40;;;3.07;;
20966;SDS011;10642;50.682;18.510;2023-07-22T07:09:22;6.33;;;3.50;;
20966;SDS011;10642;50.682;18.510;2023-07-22T07:11:49;5.80;;;3.17;;
20966;SDS011;10642;50.682;18.510;2023-07-22T07:14:16;5.13;;;3.07;;
20966;SDS011;10642;50.682;18.510;2023-07-22T07:16:43;3.67;;;2.80;;
20966;SDS011;10642;50.682;18.510;2023-07-22T07:19:10;5.47;;;3.00;;
20966;SDS011;10642;50.682;18.510;2023-07-22T07:21:37;4.93;;;2.53;;
20966;SDS011;10642;50.682;18.510;2023-07-22T07:24:04;3.90;;;3.20;;
20966;SDS011;10642;50.682;18.510;2023-07-22T07:26:31;8.33;;;2.67;;
20966;SDS011;10642;50.682;18.510;2023-07-22T07:28:58;4.10;;;2.80;;
20966;SDS011;10642;50.682;18.510;2023-07-22T07:31:25;5.07;;;3.37;;
20966;SDS011;10642;50.682;18.510;2023-07-22T07:33:52;6.57;;;3.10;;
20966;SDS011;10642;50.682;18.510;2023-07-22T07:36:19;7.43;;;2.77;;
20966;SDS011;10642;50.682;18.510;2023-07-22T07:38:46;4.43;;;2.87;;
20966;SDS011;10642;50.682;18.510;2023-07-22T07:41:13;8.60;;;3.47;;
20966;SDS011;10642;50.682;18.510;2023-07-22T07:43:41;12.90;;;4.60;;
20966;SDS011;10642;50.682;18.510;2023-07-22T07:48:39;3.63;;;2.80;;
20966;SDS011;10642;50.682;18.510;2023-07-22T07:51:06;9.13;;;3.77;;
20966;SDS011;10642;50.682;18.510;2023-07-22T07:53:32;6.83;;;3.77;;
20966;SDS011;10642;50.682;18.510;2023-07-22T07:55:59;10.23;;;3.00;;
20966;SDS011;10642;50.682;18.510;2023-07-22T07:58:26;3.83;;;2.70;;
20966;SDS011;10642;50.682;18.510;2023-07-22T08:00:53;6.73;;;2.90;;
20966;SDS011;10642;50.682;18.510;2023-07-22T08:03:20;4.27;;;2.60;;
20966;SDS011;10642;50.682;18.510;2023-07-22T08:05:47;8.23;;;3.63;;
20966;SDS011;10642;50.682;18.510;2023-07-22T08:08:14;5.97;;;2.67;;
20966;SDS011;10642;50.682;18.510;2023-07-22T08:10:41;5.40;;;2.50;;
20966;SDS011;10642;50.682;18.510;2023-07-22T08:13:09;4.63;;;3.00;;
20966;SDS011;10642;50.682;18.510;2023-07-22T08:15:40;4.77;;;2.40;;
20966;SDS011;10642;50.682;18.510;2023-07-22T08:18:08;3.67;;;2.70;;
20966;SDS011;10642;50.682;18.510;2023-07-22T08:20:35;8.30;;;2.73;;
20966;SDS011;10642;50.682;18.510;2023-07-22T08:23:02;8.53;;;2.90;;
20966;SDS011;10642;50.682;18.510;2023-07-22T08:25:29;4.30;;;2.57;;
20966;SDS011;10642;50.682;18.510;2023-07-22T08:27:56;3.67;;;2.50;;
20966;SDS011;10642;50.682;18.510;2023-07-22T08:30:23;3.83;;;2.70;;
20966;SDS011;10642;50.682;18.510;2023-07-22T08:32:49;7.40;;;3.07;;
20966;SDS011;10642;50.682;18.510;2023-07-22T08:35:16;5.80;;;2.50;;
20966;SDS011;10642;50.682;18.510;2023-07-22T08:37:49;3.03;;;2.60;;
20966;SDS011;10642;50.682;18.510;2023-07-22T08:40:16;5.90;;;2.30;;
20966;SDS011;10642;50.682;18.510;2023-07-22T08:42:43;4.07;;;2.50;;
20966;SDS011;10642;50.682;18.510;2023-07-22T08:45:10;6.97;;;2.50;;
20966;SDS011;10642;50.682;18.510;2023-07-22T08:47:38;6.43;;;3.60;;
20966;SDS011;10642;50.682;18.510;2023-07-22T08:50:06;5.47;;;2.33;;
20966;SDS011;10642;50.682;18.510;2023-07-22T08:52:33;7.63;;;3.07;;
20966;SDS011;10642;50.682;18.510;2023-07-22T08:55:00;4.90;;;2.27;;
20966;SDS011;10642;50.682;18.510;2023-07-22T08:57:28;4.27;;;2.33;;
20966;SDS011;10642;50.682;18.510;2023-07-22T08:59:56;4.67;;;2.70;;
20966;SDS011;10642;50.682;18.510;2023-07-22T09:02:24;3.60;;;2.67;;
20966;SDS011;10642;50.682;18.510;2023-07-22T09:04:51;3.07;;;2.43;;
20966;SDS011;10642;50.682;18.510;2023-07-22T09:07:18;3.47;;;2.60;;
20966;SDS011;10642;50.682;18.510;2023-07-22T09:09:46;7.47;;;3.00;;
20966;SDS011;10642;50.682;18.510;2023-07-22T09:12:13;4.03;;;2.50;;
20966;SDS011;10642;50.682;18.510;2023-07-22T09:14:41;7.47;;;2.80;;
20966;SDS011;10642;50.682;18.510;2023-07-22T09:17:08;5.23;;;2.70;;
20966;SDS011;10642;50.682;18.510;2023-07-22T09:19:34;4.80;;;3.30;;
20966;SDS011;10642;50.682;18.510;2023-07-22T09:22:01;6.60;;;2.70;;
20966;SDS011;10642;50.682;18.510;2023-07-22T09:24:28;4.67;;;3.03;;
20966;SDS011;10642;50.682;18.510;2023-07-22T09:26:57;4.53;;;3.30;;
20966;SDS011;10642;50.682;18.510;2023-07-22T09:29:42;8.70;;;3.73;;
20966;SDS011;10642;50.682;18.510;2023-07-22T09:32:11;4.17;;;3.20;;
20966;SDS011;10642;50.682;18.510;2023-07-22T09:34:39;8.53;;;3.23;;
20966;SDS011;10642;50.682;18.510;2023-07-22T09:37:20;3.53;;;3.23;;
20966;SDS011;10642;50.682;18.510;2023-07-22T09:39:47;6.70;;;3.60;;
20966;SDS011;10642;50.682;18.510;2023-07-22T09:42:23;6.03;;;3.10;;
20966;SDS011;10642;50.682;18.510;2023-07-22T09:44:51;3.43;;;3.00;;
20966;SDS011;10642;50.682;18.510;2023-07-22T09:47:17;5.37;;;3.00;;
20966;SDS011;10642;50.682;18.510;2023-07-22T09:49:44;5.47;;;2.90;;
20966;SDS011;10642;50.682;18.510;2023-07-22T09:52:11;4.93;;;2.97;;
20966;SDS011;10642;50.682;18.510;2023-07-22T09:54:48;4.50;;;3.20;;
20966;SDS011;10642;50.682;18.510;2023-07-22T09:57:16;2.90;;;2.50;;
20966;SDS011;10642;50.682;18.510;2023-07-22T09:59:43;5.40;;;3.07;;
20966;SDS011;10642;50.682;18.510;2023-07-22T10:02:10;5.30;;;2.73;;
20966;SDS011;10642;50.682;18.510;2023-07-22T10:04:38;4.63;;;3.07;;
20966;SDS011;10642;50.682;18.510;2023-07-22T10:07:05;3.90;;;2.70;;
20966;SDS011;10642;50.682;18.510;2023-07-22T10:09:33;46.97;;;4.47;;
20966;SDS011;10642;50.682;18.510;2023-07-22T10:12:03;4.03;;;2.87;;
20966;SDS011;10642;50.682;18.510;2023-07-22T10:14:30;6.50;;;3.33;;
20966;SDS011;10642;50.682;18.510;2023-07-22T10:16:59;8.37;;;3.27;;
20966;SDS011;10642;50.682;18.510;2023-07-22T10:19:26;5.37;;;3.10;;
20966;SDS011;10642;50.682;18.510;2023-07-22T10:21:53;3.07;;;2.67;;
20966;SDS011;10642;50.682;18.510;2023-07-22T10:24:20;3.63;;;3.17;;
20966;SDS011;10642;50.682;18.510;2023-07-22T10:26:48;8.93;;;2.80;;
20966;SDS011;10642;50.682;18.510;2023-07-22T10:29:18;4.37;;;3.30;;
20966;SDS011;10642;50.682;18.510;2023-07-22T10:31:46;5.60;;;2.50;;
20966;SDS011;10642;50.682;18.510;2023-07-22T10:34:28;7.03;;;3.13;;
20966;SDS011;10642;50.682;18.510;2023-07-22T10:36:56;3.10;;;2.50;;
20966;SDS011;10642;50.682;18.510;2023-07-22T10:39:28;3.13;;;2.30;;
20966;SDS011;10642;50.682;18.510;2023-07-22T10:42:03;9.20;;;2.90;;
20966;SDS011;10642;50.682;18.510;2023-07-22T10:44:37;3.50;;;3.07;;
20966;SDS011;10642;50.682;18.510;2023-07-22T10:47:05;3.80;;;2.97;;
20966;SDS011;10642;50.682;18.510;2023-07-22T10:49:42;3.17;;;2.87;;
20966;SDS011;10642;50.682;18.510;2023-07-22T10:52:10;3.53;;;2.93;;
20966;SDS011;10642;50.682;18.510;2023-07-22T10:54:37;4.57;;;2.43;;
20966;SDS011;10642;50.682;18.510;2023-07-22T10:57:25;4.80;;;2.53;;
20966;SDS011;10642;50.682;18.510;2023-07-22T10:59:53;4.03;;;2.77;;
20966;SDS011;10642;50.682;18.510;2023-07-22T11:02:26;3.63;;;3.00;;
20966;SDS011;10642;50.682;18.510;2023-07-22T11:04:55;5.03;;;3.50;;
20966;SDS011;10642;50.682;18.510;2023-07-22T11:08:05;5.57;;;3.80;;
20966;SDS011;10642;50.682;18.510;2023-07-22T11:10:14;4.23;;;3.10;;
20966;SDS011;10642;50.682;18.510;2023-07-22T11:12:45;3.93;;;2.80;;
20966;SDS011;10642;50.682;18.510;2023-07-22T11:15:14;3.90;;;3.20;;
20966;SDS011;10642;50.682;18.510;2023-07-22T11:17:41;3.80;;;2.93;;
20966;SDS011;10642;50.682;18.510;2023-07-22T11:20:08;3.10;;;2.50;;
20966;SDS011;10642;50.682;18.510;2023-07-22T11:22:38;4.47;;;3.20;;
20966;SDS011;10642;50.682;18.510;2023-07-22T11:25:05;5.07;;;3.33;;
20966;SDS011;10642;50.682;18.510;2023-07-22T11:27:33;3.23;;;2.50;;
20966;SDS011;10642;50.682;18.510;2023-07-22T11:30:00;2.87;;;2.57;;
20966;SDS011;10642;50.682;18.510;2023-07-22T11:32:31;6.10;;;3.10;;
20966;SDS011;10642;50.682;18.510;2023-07-22T11:34:58;4.43;;;2.40;;
20966;SDS011;10642;50.682;18.510;2023-07-22T11:37:27;6.10;;;3.40;;
20966;SDS011;10642;50.682;18.510;2023-07-22T11:39:59;6.53;;;3.60;;
20966;SDS011;10642;50.682;18.510;2023-07-22T11:42:26;5.10;;;3.10;;
20966;SDS011;10642;50.682;18.510;2023-07-22T11:44:53;5.13;;;3.33;;
20966;SDS011;10642;50.682;18.510;2023-07-22T11:47:20;5.13;;;3.13;;
20966;SDS011;10642;50.682;18.510;2023-07-22T11:49:55;6.93;;;3.30;;
20966;SDS011;10642;50.682;18.510;2023-07-22T11:52:21;7.73;;;2.93;;
20966;SDS011;10642;50.682;18.510;2023-07-22T11:54:48;9.03;;;3.30;;
20966;SDS011;10642;50.682;18.510;2023-07-22T11:57:16;5.10;;;3.03;;
20966;SDS011;10642;50.682;18.510;2023-07-22T12:00:01;6.97;;;3.10;;
20966;SDS011;10642;50.682;18.510;2023-07-22T12:02:30;7.13;;;3.37;;
20966;SDS011;10642;50.682;18.510;2023-07-22T12:05:03;10.13;;;3.03;;
20966;SDS011;10642;50.682;18.510;2023-07-22T12:07:36;7.43;;;3.53;;
20966;SDS011;10642;50.682;18.510;2023-07-22T12:10:04;5.50;;;3.33;;
20966;SDS011;10642;50.682;18.510;2023-07-22T12:12:33;7.10;;;3.87;;
20966;SDS011;10642;50.682;18.510;2023-07-22T12:15:04;3.73;;;2.80;;
20966;SDS011;10642;50.682;18.510;2023-07-22T12:17:42;4.87;;;3.20;;
20966;SDS011;10642;50.682;18.510;2023-07-22T12:20:10;4.90;;;3.00;;
20966;SDS011;10642;50.682;18.510;2023-07-22T12:22:37;5.33;;;3.10;;
20966;SDS011;10642;50.682;18.510;2023-07-22T12:25:04;7.23;;;3.17;;
20966;SDS011;10642;50.682;18.510;2023-07-22T12:27:31;4.43;;;2.80;;
20966;SDS011;10642;50.682;18.510;2023-07-22T12:29:58;8.10;;;2.50;;
20966;SDS011;10642;50.682;18.510;2023-07-22T12:32:25;8.00;;;2.83;;
20966;SDS011;10642;50.682;18.510;2023-07-22T12:34:52;5.47;;;2.90;;
20966;SDS011;10642;50.682;18.510;2023-07-22T12:37:19;3.83;;;2.30;;
20966;SDS011;10642;50.682;18.510;2023-07-22T12:39:46;3.63;;;2.60;;
20966;SDS011;10642;50.682;18.510;2023-07-22T12:42:13;4.23;;;2.50;;
20966;SDS011;10642;50.682;18.510;2023-07-22T12:44:40;11.13;;;5.37;;
20966;SDS011;10642;50.682;18.510;2023-07-22T12:47:07;9.37;;;3.33;;
20966;SDS011;10642;50.682;18.510;2023-07-22T12:49:34;7.73;;;3.00;;
20966;SDS011;10642;50.682;18.510;2023-07-22T12:52:01;7.23;;;2.37;;
20966;SDS011;10642;50.682;18.510;2023-07-22T12:54:30;3.10;;;2.20;;
20966;SDS011;10642;50.682;18.510;2023-07-22T12:56:57;6.07;;;2.70;;
20966;SDS011;10642;50.682;18.510;2023-07-22T12:59:24;6.37;;;2.80;;
20966;SDS011;10642;50.682;18.510;2023-07-22T13:01:51;5.23;;;2.20;;
20966;SDS011;10642;50.682;18.510;2023-07-22T13:04:18;5.10;;;2.70;;
20966;SDS011;10642;50.682;18.510;2023-07-22T13:06:45;5.43;;;2.90;;
20966;SDS011;10642;50.682;18.510;2023-07-22T13:09:12;3.13;;;2.37;;
20966;SDS011;10642;50.682;18.510;2023-07-22T13:11:39;3.17;;;2.53;;
20966;SDS011;10642;50.682;18.510;2023-07-22T13:14:07;3.80;;;2.37;;
20966;SDS011;10642;50.682;18.510;2023-07-22T13:16:34;4.40;;;2.87;;
20966;SDS011;10642;50.682;18.510;2023-07-22T13:19:01;4.03;;;2.93;;
20966;SDS011;10642;50.682;18.510;2023-07-22T13:21:30;4.20;;;2.70;;
20966;SDS011;10642;50.682;18.510;2023-07-22T13:23:56;3.30;;;2.70;;
20966;SDS011;10642;50.682;18.510;2023-07-22T13:26:23;3.37;;;2.80;;
20966;SDS011;10642;50.682;18.510;2023-07-22T13:28:50;4.37;;;2.80;;
20966;SDS011;10642;50.682;18.510;2023-07-22T13:31:19;7.93;;;3.30;;
20966;SDS011;10642;50.682;18.510;2023-07-22T13:33:46;3.90;;;2.23;;
20966;SDS011;10642;50.682;18.510;2023-07-22T13:36:13;3.90;;;2.67;;
20966;SDS011;10642;50.682;18.510;2023-07-22T13:38:40;4.87;;;3.03;;
20966;SDS011;10642;50.682;18.510;2023-07-22T13:41:06;5.90;;;3.00;;
20966;SDS011;10642;50.682;18.510;2023-07-22T13:43:33;8.60;;;2.43;;
20966;SDS011;10642;50.682;18.510;2023-07-22T13:46:00;4.97;;;3.00;;
20966;SDS011;10642;50.682;18.510;2023-07-22T13:48:27;3.97;;;2.50;;
20966;SDS011;10642;50.682;18.510;2023-07-22T13:50:54;3.50;;;2.60;;
20966;SDS011;10642;50.682;18.510;2023-07-22T13:53:21;4.77;;;2.83;;
20966;SDS011;10642;50.682;18.510;2023-07-22T13:55:48;3.47;;;3.00;;
20966;SDS011;10642;50.682;18.510;2023-07-22T13:58:18;6.60;;;2.90;;
20966;SDS011;10642;50.682;18.510;2023-07-22T14:00:45;4.50;;;2.87;;
20966;SDS011;10642;50.682;18.510;2023-07-22T14:03:12;4.30;;;3.30;;
20966;SDS011;10642;50.682;18.510;2023-07-22T14:05:39;5.63;;;2.53;;
20966;SDS011;10642;50.682;18.510;2023-07-22T14:08:06;3.83;;;3.33;;
20966;SDS011;10642;50.682;18.510;2023-07-22T14:10:33;4.90;;;2.60;;
20966;SDS011;10642;50.682;18.510;2023-07-22T14:13:00;5.00;;;3.33;;
20966;SDS011;10642;50.682;18.510;2023-07-22T14:15:27;4.23;;;2.87;;
20966;SDS011;10642;50.682;18.510;2023-07-22T14:17:54;6.70;;;3.20;;
20966;SDS011;10642;50.682;18.510;2023-07-22T14:20:21;4.00;;;3.03;;
20966;SDS011;10642;50.682;18.510;2023-07-22T14:22:48;3.23;;;2.10;;
20966;SDS011;10642;50.682;18.510;2023-07-22T14:25:18;3.80;;;2.53;;
20966;SDS011;10642;50.682;18.510;2023-07-22T14:27:46;7.57;;;3.20;;
20966;SDS011;10642;50.682;18.510;2023-07-22T14:30:13;4.47;;;2.60;;
20966;SDS011;10642;50.682;18.510;2023-07-22T14:32:40;3.07;;;2.77;;
20966;SDS011;10642;50.682;18.510;2023-07-22T14:35:07;4.47;;;2.97;;
20966;SDS011;10642;50.682;18.510;2023-07-22T14:37:35;4.67;;;2.83;;